Du har inga inställningar för hoppväder.nu

Hoppväder.nu

Senast uppdaterat 02:12

UTC-tid

2019-12-06 kl. 01:12


Sol och måne

Solen går upp 8:16 och går ner 15:00 (beräknade cirkatider)
Nästa fullmåne blir om 6 dagar (2019-12-12)

METAR

ESSV (Visby)
(22 minuter sedan)
ESSV 060050Z AUTO 22022KT 9999 FEW014/// OVC028/// 06/04 Q0998=















TAF

ESSV (Visby)
(462 minuter sedan)
ESSV 051730Z 0518/0523 24022G32KT 9999 BKN025=





Kodnycklar till TAF och METAR






LHP

(Visby är område H2a i Sydöstra delen)

Prognos är inte uppdaterad




Spotting

Hur fungerar spotthjälpen och Vindkartan?

Markvind är ca 0 m/s.



Vindkartan

Senast uppdaterad 02:12




All data kommer från LFV.se